Time;durP1;ratioP1;P1;durP2;ratioP2;P2;SDS_P1;SDS_P2;PMS_P1;PMS_P2;Temp;Humidity;BMP_temperature;BMP_pressure;BME280_temperature;BME280_humidity;BME280_pressure;Samples;Min_cycle;Max_cycle;Signal;HPM_P1;HPM_P2
2022/10/30 00:00:37;;;;;;;102.18;29.17;;;;;;;11.37;100.00;99496.16;4470267;32;20089;-76
2022/10/30 00:03:04;;;;;;;99.65;28.45;;;;;;;11.39;100.00;99486.38;4472144;32;20109;-76
2022/10/30 00:05:31;;;;;;;84.37;29.15;;;;;;;11.33;100.00;99471.94;4485773;31;20107;-76
2022/10/30 00:07:59;;;;;;;88.43;28.60;;;;;;;11.36;100.00;99484.00;4478469;31;20183;-75
2022/10/30 00:10:27;;;;;;;161.95;29.40;;;;;;;11.30;100.00;99477.44;4470142;32;20089;-76
2022/10/30 00:12:54;;;;;;;158.65;30.50;;;;;;;11.23;100.00;99484.13;4469365;32;20096;-76
2022/10/30 00:15:21;;;;;;;115.28;28.08;;;;;;;11.17;100.00;99485.50;4470329;32;20148;-76
2022/10/30 00:17:48;;;;;;;115.20;28.98;;;;;;;11.18;100.00;99481.06;4469992;32;20115;-76
2022/10/30 00:20:15;;;;;;;123.10;29.05;;;;;;;11.21;100.00;99487.88;4470175;32;20167;-76
2022/10/30 00:22:42;;;;;;;179.70;31.62;;;;;;;11.19;100.00;99475.69;4469999;32;20111;-76
2022/10/30 00:25:10;;;;;;;114.15;29.58;;;;;;;11.23;100.00;99480.69;4470132;32;20155;-76
2022/10/30 00:27:37;;;;;;;250.13;33.50;;;;;;;11.25;100.00;99477.00;4470042;32;20101;-76
2022/10/30 00:30:04;;;;;;;212.63;31.02;;;;;;;11.29;100.00;99469.72;4470039;32;20114;-76
2022/10/30 00:32:32;;;;;;;168.95;30.58;;;;;;;11.22;100.00;99468.53;4469760;32;20093;-76
2022/10/30 00:34:59;;;;;;;121.03;28.27;;;;;;;11.17;100.00;99475.00;4470314;32;20164;-76
2022/10/30 00:37:26;;;;;;;272.83;32.20;;;;;;;11.21;100.00;99472.12;4469631;32;20115;-76
2022/10/30 00:39:53;;;;;;;236.57;31.50;;;;;;;11.21;100.00;99469.50;4469970;32;20093;-76
2022/10/30 00:42:20;;;;;;;309.27;33.95;;;;;;;11.23;100.00;99454.47;4469764;32;20122;-76
2022/10/30 00:44:49;;;;;;;288.98;30.83;;;;;;;11.27;100.00;99455.91;4469893;32;20097;-76
2022/10/30 00:47:22;;;;;;;283.00;32.13;;;;;;;11.19;100.00;99456.53;4469871;32;20119;-76
2022/10/30 00:49:57;;;;;;;355.80;34.90;;;;;;;11.22;100.00;99447.53;4469965;32;20080;-76
2022/10/30 00:52:28;;;;;;;306.23;31.80;;;;;;;11.11;100.00;99448.41;4468604;32;20103;-76
2022/10/30 00:54:56;;;;;;;320.55;36.08;;;;;;;11.16;100.00;99454.97;4470069;32;20202;-76
2022/10/30 00:57:24;;;;;;;298.62;32.42;;;;;;;11.18;100.00;99454.84;4468536;32;20165;-76
2022/10/30 00:59:52;;;;;;;299.45;30.90;;;;;;;11.16;100.00;99454.16;4469746;32;20093;-76
2022/10/30 01:02:20;;;;;;;326.62;32.47;;;;;;;11.13;100.00;99447.34;4469718;32;20465;-76
2022/10/30 01:04:48;;;;;;;309.35;31.20;;;;;;;11.13;100.00;99446.53;4482981;32;20123;-76
2022/10/30 01:07:16;;;;;;;254.00;30.25;;;;;;;11.08;100.00;99457.38;4481446;32;20135;-76
2022/10/30 01:09:45;;;;;;;203.30;29.42;;;;;;;11.11;100.00;99448.41;4469616;32;20168;-76
2022/10/30 01:12:13;;;;;;;212.35;26.27;;;;;;;11.05;100.00;99452.34;4468451;32;20180;-76
2022/10/30 01:14:50;;;;;;;186.80;27.05;;;;;;;11.04;100.00;99444.63;4469693;32;20439;-76
2022/10/30 01:17:45;;;;;;;111.57;26.60;;;;;;;10.99;100.00;99447.59;4470022;32;20111;-76
2022/10/30 01:20:31;;;;;;;136.25;25.48;;;;;;;11.05;100.00;99443.66;4469880;32;20101;-76
2022/10/30 01:23:24;;;;;;;180.63;26.80;;;;;;;11.07;100.00;99437.34;4469424;32;20103;-76
2022/10/30 01:26:13;;;;;;;285.30;27.90;;;;;;;11.09;100.00;99438.06;4468744;32;20123;-76
2022/10/30 01:29:18;;;;;;;201.57;27.10;;;;;;;11.10;100.00;99434.50;4468654;32;20108;-75
2022/10/30 01:32:09;;;;;;;269.42;29.65;;;;;;;11.09;100.00;99422.31;4469756;32;20093;-75
2022/10/30 01:35:09;;;;;;;173.07;25.23;;;;;;;11.10;100.00;99421.37;4468565;32;20481;-76
2022/10/30 01:37:47;;;;;;;166.95;27.17;;;;;;;11.12;100.00;99410.75;4469659;32;20445;-75
2022/10/30 01:40:16;;;;;;;188.37;28.92;;;;;;;11.18;100.00;99411.09;4468662;32;20184;-76
2022/10/30 01:42:50;;;;;;;141.32;26.33;;;;;;;11.17;100.00;99413.84;4469562;32;20565;-75
2022/10/30 01:45:18;;;;;;;244.82;28.27;;;;;;;11.17;100.00;99406.81;4469876;32;20093;-76
2022/10/30 01:48:30;;;;;;;377.08;32.05;;;;;;;11.16;100.00;99402.53;4469461;32;20128;-76
2022/10/30 01:51:09;;;;;;;334.20;28.60;;;;;;;11.23;100.00;99402.00;4420998;32;20110;-76
2022/10/30 01:53:39;;;;;;;265.02;26.08;;;;;;;11.18;100.00;99407.63;4420798;32;20180;-76
2022/10/30 01:56:39;;;;;;;231.55;26.25;;;;;;;11.10;100.00;99413.50;4420854;32;20120;-76
2022/10/30 01:59:06;;;;;;;245.12;28.15;;;;;;;11.13;100.00;99425.56;4408094;32;20109;-76
2022/10/30 02:01:35;;;;;;;259.92;25.85;;;;;;;11.08;100.00;99425.06;4420752;32;20203;-76
2022/10/30 02:04:03;;;;;;;190.38;23.45;;;;;;;11.01;100.00;99424.75;4400145;32;20106;-76
2022/10/30 02:06:30;;;;;;;280.35;25.33;;;;;;;10.95;100.00;99417.38;4405443;32;20131;-76
2022/10/30 02:08:57;;;;;;;187.95;25.25;;;;;;;10.90;100.00;99415.13;4405320;32;20122;-76
2022/10/30 02:11:25;;;;;;;323.55;29.48;;;;;;;10.89;100.00;99415.25;4420531;32;20110;-76
2022/10/30 02:13:55;;;;;;;350.23;28.83;;;;;;;10.82;100.00;99415.75;4407520;32;20326;-76
2022/10/30 02:16:22;;;;;;;264.10;26.40;;;;;;;10.80;100.00;99422.06;4420699;32;20741;-76
2022/10/30 02:18:50;;;;;;;236.20;22.92;;;;;;;10.82;100.00;99418.38;4407644;32;20153;-76
2022/10/30 02:21:17;;;;;;;285.15;25.35;;;;;;;10.83;100.00;99417.38;4420339;32;20340;-76
2022/10/30 02:23:44;;;;;;;265.25;23.62;;;;;;;10.87;100.00;99431.09;4420181;32;20163;-76
2022/10/30 02:26:11;;;;;;;269.62;26.10;;;;;;;10.83;100.00;99417.38;4435514;32;20513;-76
2022/10/30 02:28:40;;;;;;;355.87;28.48;;;;;;;10.75;100.00;99425.03;4469003;32;20583;-76
2022/10/30 02:31:07;;;;;;;301.88;26.35;;;;;;;10.73;100.00;99418.25;4468954;32;20088;-76
2022/10/30 02:33:34;;;;;;;265.80;25.70;;;;;;;10.75;100.00;99422.41;4469146;32;20160;-76
2022/10/30 02:36:02;;;;;;;135.35;20.80;;;;;;;10.82;100.00;99422.75;4468471;32;20449;-76
2022/10/30 02:38:30;;;;;;;177.68;21.58;;;;;;;10.81;100.00;99419.31;4468727;32;20100;-76
2022/10/30 02:40:57;;;;;;;199.48;21.12;;;;;;;10.77;100.00;99423.13;4468957;32;20112;-76
2022/10/30 02:43:24;;;;;;;138.23;21.60;;;;;;;10.70;100.00;99421.94;4468789;32;20130;-76
2022/10/30 02:45:51;;;;;;;160.77;20.73;;;;;;;10.67;100.00;99416.94;4468632;32;20131;-76
2022/10/30 02:48:20;;;;;;;315.73;22.85;;;;;;;10.68;100.00;99417.78;4469145;32;20097;-76
2022/10/30 02:50:47;;;;;;;290.55;22.33;;;;;;;10.63;100.00;99415.53;4468631;32;20185;-76
2022/10/30 02:53:14;;;;;;;280.30;23.40;;;;;;;10.61;100.00;99412.19;4468661;32;20270;-76
2022/10/30 02:55:41;;;;;;;366.05;25.58;;;;;;;10.72;100.00;99406.94;4468826;32;20111;-76
2022/10/30 02:58:08;;;;;;;272.83;25.80;;;;;;;10.77;100.00;99414.44;4468949;32;20089;-76
2022/10/30 03:00:35;;;;;;;190.85;19.35;;;;;;;10.71;100.00;99418.38;4468651;32;20134;-76
2022/10/30 03:03:03;;;;;;;227.55;22.00;;;;;;;10.64;100.00;99412.78;4470652;32;20092;-76
2022/10/30 03:05:30;;;;;;;250.25;20.83;;;;;;;10.58;100.00;99413.28;4484345;31;20110;-76
2022/10/30 03:07:57;;;;;;;357.58;25.25;;;;;;;10.62;100.00;99408.63;4477478;31;20093;-76
2022/10/30 03:10:25;;;;;;;234.82;23.08;;;;;;;10.53;100.00;99415.41;4468618;32;20149;-76
2022/10/30 03:12:52;;;;;;;120.75;20.00;;;;;;;10.54;100.00;99413.66;4468626;32;20512;-75
2022/10/30 03:15:19;;;;;;;363.48;25.05;;;;;;;10.52;100.00;99412.91;4468329;32;20134;-76
2022/10/30 03:17:48;;;;;;;251.98;20.92;;;;;;;10.55;100.00;99412.66;4468417;32;20120;-76
2022/10/30 03:20:15;;;;;;;191.32;22.02;;;;;;;10.56;100.00;99419.59;4468261;32;20109;-76
2022/10/30 03:22:43;;;;;;;365.92;23.70;;;;;;;10.63;100.00;99415.53;4468590;32;20195;-76
2022/10/30 03:25:10;;;;;;;339.10;23.60;;;;;;;10.57;100.00;99413.41;4468206;32;20104;-76
2022/10/30 03:27:37;;;;;;;372.48;26.90;;;;;;;10.51;100.00;99417.34;4468168;32;20192;-76
2022/10/30 03:30:05;;;;;;;307.42;25.33;;;;;;;10.57;100.00;99405.53;4468367;32;20162;-76
2022/10/30 03:32:32;;;;;;;444.08;31.85;;;;;;;10.53;100.00;99410.19;4468430;32;20148;-76
2022/10/30 03:35:00;;;;;;;415.73;28.95;;;;;;;10.43;100.00;99407.47;4468451;32;20150;-76
2022/10/30 03:37:27;;;;;;;388.20;27.95;;;;;;;10.50;100.00;99399.13;4468109;32;20096;-76
2022/10/30 03:39:54;;;;;;;365.25;27.87;;;;;;;10.49;100.00;99398.25;4468320;32;20446;-76
2022/10/30 03:42:21;;;;;;;190.23;20.17;;;;;;;10.48;100.00;99402.69;4468296;32;20160;-76
2022/10/30 03:44:48;;;;;;;218.25;22.62;;;;;;;10.52;100.00;99408.50;4468272;32;20116;-76
2022/10/30 03:47:16;;;;;;;265.27;21.83;;;;;;;10.51;100.00;99412.09;4468707;32;20177;-76
2022/10/30 03:49:43;;;;;;;272.88;26.27;;;;;;;10.57;100.00;99406.37;4470413;32;20136;-76
2022/10/30 03:52:10;;;;;;;290.45;24.42;;;;;;;10.61;100.00;99409.56;4470351;32;20176;-76
2022/10/30 03:54:37;;;;;;;209.62;23.62;;;;;;;10.55;100.00;99407.44;4470299;32;20549;-76
2022/10/30 03:57:04;;;;;;;286.30;25.35;;;;;;;10.58;100.00;99401.94;4470299;32;20109;-76
2022/10/30 03:59:32;;;;;;;263.17;28.10;;;;;;;10.60;100.00;99402.69;4470199;32;20481;-76
2022/10/30 04:02:00;;;;;;;249.85;25.85;;;;;;;10.60;100.00;99400.06;4470346;32;20084;-76
2022/10/30 04:04:28;;;;;;;268.23;26.35;;;;;;;10.44;100.00;99403.88;4481644;32;20474;-76
2022/10/30 04:06:55;;;;;;;304.98;25.02;;;;;;;10.42;100.00;99403.16;4485658;31;20438;-76
2022/10/30 04:09:22;;;;;;;340.58;26.37;;;;;;;10.43;100.00;99404.84;4470445;32;20120;-76
2022/10/30 04:11:50;;;;;;;70.85;18.20;;;;;;;10.43;100.00;99394.38;4470408;32;20115;-76
2022/10/30 04:14:17;;;;;;;177.87;21.27;;;;;;;10.45;100.00;99392.44;4470481;32;20092;-76
2022/10/30 04:16:44;;;;;;;250.25;23.52;;;;;;;10.47;100.00;99387.91;4470232;32;20104;-76
2022/10/30 04:19:11;;;;;;;231.95;20.67;;;;;;;10.43;100.00;99399.59;4470098;32;20105;-76
2022/10/30 04:21:38;;;;;;;196.20;22.13;;;;;;;10.42;100.00;99397.94;4470040;32;20508;-76
2022/10/30 04:24:06;;;;;;;176.43;20.48;;;;;;;10.36;100.00;99398.41;4470453;32;20475;-76
2022/10/30 04:26:34;;;;;;;156.20;19.52;;;;;;;10.35;100.00;99391.50;4470148;32;20128;-76
2022/10/30 04:29:01;;;;;;;332.80;23.55;;;;;;;10.43;100.00;99390.87;4470172;32;20092;-76
2022/10/30 04:31:28;;;;;;;244.05;28.38;;;;;;;10.37;100.00;99397.47;4469886;32;20108;-76
2022/10/30 04:33:56;;;;;;;191.25;22.73;;;;;;;10.44;100.00;99401.25;4469989;32;20533;-76
2022/10/30 04:36:29;;;;;;;199.52;21.10;;;;;;;10.32;100.00;99396.94;4470003;32;20360;-76
2022/10/30 04:38:56;;;;;;;150.25;22.23;;;;;;;10.29;100.00;99395.41;4469952;32;20104;-76
2022/10/30 04:41:23;;;;;;;133.85;19.83;;;;;;;10.22;100.00;99391.59;4470013;32;20536;-76
2022/10/30 04:43:51;;;;;;;138.82;20.30;;;;;;;10.25;100.00;99393.13;4470191;32;20100;-76
2022/10/30 04:46:18;;;;;;;160.70;19.92;;;;;;;10.17;100.00;99400.75;4469729;32;20132;-76
2022/10/30 04:48:45;;;;;;;69.28;18.05;;;;;;;10.21;100.00;99400.41;4469897;32;20096;-76
2022/10/30 04:51:13;;;;;;;140.52;22.30;;;;;;;10.23;100.00;99397.66;4469949;32;20164;-76
2022/10/30 04:53:41;;;;;;;75.53;19.15;;;;;;;10.30;100.00;99399.69;4469780;32;20497;-76
2022/10/30 04:56:10;;;;;;;129.20;18.95;;;;;;;10.36;100.00;99401.03;4469854;32;20150;-76
2022/10/30 04:58:37;;;;;;;107.15;18.62;;;;;;;10.26;100.00;99400.03;4469822;32;20119;-76
2022/10/30 05:01:05;;;;;;;126.12;19.30;;;;;;;10.22;100.00;99401.22;4469892;32;20163;-76
2022/10/30 05:03:33;;;;;;;105.12;17.70;;;;;;;10.23;100.00;99400.28;4475240;32;20111;-76
2022/10/30 05:06:01;;;;;;;56.80;16.52;;;;;;;10.21;100.00;99408.25;4485439;31;20088;-76
2022/10/30 05:08:29;;;;;;;153.20;19.92;;;;;;;10.21;100.00;99399.59;4475164;31;20450;-76
2022/10/30 05:10:57;;;;;;;49.22;17.10;;;;;;;10.29;100.00;99394.56;4469857;32;20617;-76
2022/10/30 05:13:24;;;;;;;210.82;26.87;;;;;;;10.34;100.00;99391.63;4470063;32;20097;-76
2022/10/30 05:15:53;;;;;;;134.63;20.70;;;;;;;10.39;100.00;99397.34;4469704;32;20105;-76
2022/10/30 05:18:20;;;;;;;38.08;15.45;;;;;;;10.36;100.00;99403.66;4469834;32;20112;-76
2022/10/30 05:20:48;;;;;;;76.43;16.70;;;;;;;10.31;100.00;99405.78;4469853;32;20158;-76
2022/10/30 05:23:15;;;;;;;38.65;15.75;;;;;;;10.21;100.00;99408.25;4469548;32;20123;-76
2022/10/30 05:25:42;;;;;;;48.75;15.25;;;;;;;10.28;100.00;99409.47;4469725;32;20089;-76
2022/10/30 05:28:09;;;;;;;35.53;14.77;;;;;;;10.32;100.00;99415.28;4469721;32;20101;-76
2022/10/30 05:30:37;;;;;;;38.95;15.18;;;;;;;10.32;100.00;99423.13;4468481;32;20119;-76
2022/10/30 05:33:06;;;;;;;39.75;14.77;;;;;;;10.32;100.00;99417.91;4469723;32;20119;-76
2022/10/30 05:35:34;;;;;;;53.72;15.43;;;;;;;10.29;100.00;99418.12;4469872;32;20522;-76
2022/10/30 05:38:04;;;;;;;39.97;16.20;;;;;;;10.26;100.00;99426.22;4469534;32;20100;-76
2022/10/30 05:40:32;;;;;;;34.35;15.57;;;;;;;10.25;100.00;99433.25;4469915;32;20111;-76
2022/10/30 05:42:59;;;;;;;33.55;14.57;;;;;;;10.23;100.00;99432.53;4469637;32;20093;-76
2022/10/30 05:45:28;;;;;;;36.42;14.18;;;;;;;10.33;100.00;99439.69;4469828;32;20567;-76
2022/10/30 05:47:57;;;;;;;33.78;15.00;;;;;;;10.30;100.00;99448.62;4469588;32;20100;-76
2022/10/30 05:50:29;;;;;;;52.55;16.15;;;;;;;10.35;100.00;99443.88;4469812;32;20454;-76
2022/10/30 05:53:08;;;;;;;36.03;14.77;;;;;;;10.37;100.00;99438.53;4469327;32;20089;-76
2022/10/30 05:55:37;;;;;;;42.40;14.30;;;;;;;10.30;100.00;99435.53;4469649;32;20124;-76
2022/10/30 05:58:05;;;;;;;43.78;13.77;;;;;;;10.40;100.00;99438.28;4469423;32;20100;-76
2022/10/30 06:00:34;;;;;;;67.87;14.48;;;;;;;10.39;100.00;99429.59;4468309;32;20112;-76
2022/10/30 06:03:04;;;;;;;37.22;14.65;;;;;;;10.21;100.00;99434.44;4471253;32;20111;-76
2022/10/30 06:05:34;;;;;;;40.42;14.27;;;;;;;10.33;100.00;99427.47;4485195;31;20100;-76
2022/10/30 06:08:01;;;;;;;44.22;14.82;;;;;;;10.39;100.00;99426.16;4477522;31;20108;-76
2022/10/30 06:10:29;;;;;;;30.33;13.62;;;;;;;10.50;100.00;99434.00;4468720;32;20084;-76
2022/10/30 06:13:01;;;;;;;32.63;14.43;;;;;;;10.50;100.00;99426.12;4469447;32;20136;-76
2022/10/30 06:15:30;;;;;;;40.53;14.23;;;;;;;10.47;100.00;99429.00;4469557;32;20524;-76
2022/10/30 06:17:57;;;;;;;38.05;14.48;;;;;;;10.62;100.00;99426.97;4469227;32;20100;-76
2022/10/30 06:20:28;;;;;;;31.92;13.77;;;;;;;10.63;100.00;99434.69;4469047;32;20105;-76
2022/10/30 06:23:04;;;;;;;31.17;13.25;;;;;;;10.69;100.00;99432.53;4469236;32;20084;-76
2022/10/30 06:25:34;;;;;;;35.15;14.07;;;;;;;10.64;100.00;99438.16;4469458;32;20458;-76
2022/10/30 06:28:12;;;;;;;29.42;13.18;;;;;;;10.63;100.00;99439.13;4462246;32;215788;-76
2022/10/30 06:30:40;;;;;;;29.60;13.20;;;;;;;10.64;100.00;99432.91;4469465;32;20081;-76
2022/10/30 06:33:08;;;;;;;28.80;11.93;;;;;;;10.59;100.00;99435.06;4469273;32;20093;-76
2022/10/30 06:35:36;;;;;;;28.42;12.75;;;;;;;10.69;100.00;99441.25;4469327;32;20097;-76
2022/10/30 06:38:03;;;;;;;28.30;12.40;;;;;;;10.70;100.00;99437.66;4468906;32;20454;-76
2022/10/30 06:40:31;;;;;;;39.60;13.13;;;;;;;10.71;100.00;99435.91;4469252;32;20160;-76
2022/10/30 06:42:59;;;;;;;30.08;13.35;;;;;;;10.78;100.00;99440.53;4469144;32;20156;-76
2022/10/30 06:45:27;;;;;;;28.40;14.00;;;;;;;10.88;100.00;99434.53;4468995;32;20120;-76
2022/10/30 06:47:54;;;;;;;29.00;13.23;;;;;;;11.01;100.00;99443.09;4468974;32;20096;-76
2022/10/30 06:50:23;;;;;;;30.58;14.18;;;;;;;11.14;100.00;99445.56;4469103;32;20108;-76
2022/10/30 06:52:50;;;;;;;36.03;13.82;;;;;;;11.08;100.00;99453.91;4468682;32;20101;-76
2022/10/30 06:55:17;;;;;;;45.92;14.90;;;;;;;11.13;100.00;99449.97;4468811;32;20101;-76
2022/10/30 06:57:45;;;;;;;30.45;14.10;;;;;;;11.18;100.00;99460.91;4468690;32;20092;-76
2022/10/30 07:00:12;;;;;;;34.50;14.15;;;;;;;11.34;100.00;99454.44;4468765;32;20110;-76
2022/10/30 07:02:40;;;;;;;55.88;15.55;;;;;;;11.35;100.00;99453.47;4468563;32;20135;-76
2022/10/30 07:05:08;;;;;;;44.28;15.38;;;;;;;11.32;100.00;99456.34;4484386;32;20134;-76
2022/10/30 07:07:35;;;;;;;57.45;14.77;;;;;;;11.43;100.00;99461.56;4479562;31;20100;-76
2022/10/30 07:10:02;;;;;;;32.33;14.98;;;;;;;11.44;100.00;99465.81;4468614;32;20115;-76
2022/10/30 07:12:31;;;;;;;36.78;15.20;;;;;;;11.42;100.00;99459.06;4468638;32;20119;-76
2022/10/30 07:14:58;;;;;;;34.50;15.20;;;;;;;11.45;100.00;99454.38;4468439;32;20157;-76
2022/10/30 07:17:26;;;;;;;31.05;14.40;;;;;;;11.64;100.00;99461.59;4468477;32;20100;-76
2022/10/30 07:19:54;;;;;;;34.10;15.13;;;;;;;11.71;100.00;99462.72;4468575;32;20101;-76
2022/10/30 07:22:21;;;;;;;32.83;15.10;;;;;;;11.81;100.00;99459.34;4470012;32;20109;-76
2022/10/30 07:24:48;;;;;;;29.67;14.75;;;;;;;11.71;100.00;99460.09;4470574;32;20462;-76
2022/10/30 07:27:16;;;;;;;33.60;14.20;;;;;;;11.75;100.00;99460.69;4470369;32;20104;-76
2022/10/30 07:29:43;;;;;;;36.78;15.52;;;;;;;11.64;100.00;99460.75;4470522;32;20080;-76
2022/10/30 07:32:12;;;;;;;32.50;16.05;;;;;;;11.65;100.00;99462.41;4470562;32;20112;-76
2022/10/30 07:34:42;;;;;;;31.65;15.13;;;;;;;11.71;100.00;99465.34;4470322;32;20101;-76
2022/10/30 07:37:16;;;;;;;34.97;15.70;;;;;;;11.69;100.00;99464.66;4470532;32;20157;-76
2022/10/30 07:39:44;;;;;;;41.53;16.10;;;;;;;11.83;100.00;99467.94;4470068;32;20085;-76
2022/10/30 07:42:11;;;;;;;40.92;15.18;;;;;;;11.98;100.00;99465.84;4470652;32;20109;-76
2022/10/30 07:44:38;;;;;;;37.20;15.98;;;;;;;12.00;100.00;99472.63;4470563;32;20104;-76
2022/10/30 07:47:07;;;;;;;31.58;15.25;;;;;;;12.11;100.00;99484.84;4470693;32;20510;-76
2022/10/30 07:49:34;;;;;;;36.25;15.32;;;;;;;12.11;100.00;99479.59;4470455;32;20119;-76
2022/10/30 07:52:03;;;;;;;38.70;16.25;;;;;;;12.03;100.00;99485.50;4470429;32;20115;-76
2022/10/30 07:54:31;;;;;;;32.85;14.73;;;;;;;12.02;100.00;99477.75;4470396;32;20097;-76
2022/10/30 07:56:59;;;;;;;31.17;15.70;;;;;;;11.96;100.00;99463.34;4470615;32;20144;-76
2022/10/30 07:59:38;;;;;;;41.25;16.95;;;;;;;12.04;100.00;99471.41;4470201;32;20093;-76
2022/10/30 08:02:10;;;;;;;37.22;15.98;;;;;;;12.13;100.00;99469.81;4470578;32;20100;-76
2022/10/30 08:04:38;;;;;;;35.78;15.60;;;;;;;12.05;100.00;99477.47;4482612;32;20112;-76
2022/10/30 08:07:06;;;;;;;31.40;15.10;;;;;;;11.97;100.00;99474.69;4484492;32;20411;-76
2022/10/30 08:09:33;;;;;;;36.60;16.67;;;;;;;12.06;100.00;99468.66;4469951;32;20093;-76
2022/10/30 08:12:01;;;;;;;36.55;16.45;;;;;;;12.20;100.00;99475.34;4470357;32;20101;-76
2022/10/30 08:14:28;;;;;;;34.17;15.90;;;;;;;12.30;100.00;99476.25;4470034;32;20120;-76
2022/10/30 08:16:55;;;;;;;34.45;16.27;;;;;;;12.18;100.00;99472.03;4470285;32;20108;-76
2022/10/30 08:19:23;;;;;;;42.22;17.45;;;;;;;12.20;100.00;99475.34;4470190;32;20474;-76
2022/10/30 08:21:51;;;;;;;46.63;17.70;;;;;;;12.27;100.00;99481.75;4470318;32;20149;-76
2022/10/30 08:24:25;;;;;;;36.53;16.27;;;;;;;12.23;100.00;99480.34;4469863;32;20161;-76
2022/10/30 08:26:52;;;;;;;39.08;16.98;;;;;;;12.27;100.00;99481.75;4470174;32;20525;-75
2022/10/30 08:29:20;;;;;;;37.22;16.60;;;;;;;12.32;100.00;99486.62;4470185;32;20622;-76
2022/10/30 08:31:48;;;;;;;36.13;16.17;;;;;;;12.45;100.00;99486.44;4470018;32;20119;-76
2022/10/30 08:34:17;;;;;;;37.15;16.55;;;;;;;12.54;100.00;99478.56;4469490;32;20104;-76
2022/10/30 08:36:48;;;;;;;36.92;17.42;;;;;;;12.62;100.00;99479.72;4470116;32;20162;-76
2022/10/30 08:39:19;;;;;;;32.25;15.32;;;;;;;12.68;100.00;99484.44;4470033;32;20579;-76
2022/10/30 08:41:47;;;;;;;34.92;16.23;;;;;;;12.75;100.00;99485.56;4470218;32;20383;-76
2022/10/30 08:44:15;;;;;;;33.08;15.23;;;;;;;12.76;100.00;99490.69;4470078;32;20127;-76
2022/10/30 08:46:43;;;;;;;32.33;16.10;;;;;;;12.89;100.00;99487.81;4470061;32;20105;-76
2022/10/30 08:49:11;;;;;;;37.15;16.12;;;;;;;13.01;100.00;99490.34;4469901;32;20183;-76
2022/10/30 08:51:39;;;;;;;35.28;16.83;;;;;;;13.10;100.00;99477.22;4470000;32;20089;-76
2022/10/30 08:54:08;;;;;;;35.60;17.15;;;;;;;13.11;100.00;99476.25;4470197;32;20165;-76
2022/10/30 08:56:35;;;;;;;32.88;16.17;;;;;;;13.18;100.00;99478.34;4470090;32;20155;-76
2022/10/30 08:59:04;;;;;;;32.35;15.15;;;;;;;13.16;100.00;99478.47;4469961;32;20243;-76
2022/10/30 09:01:35;;;;;;;31.33;16.23;;;;;;;13.08;100.00;99486.19;4469842;32;20141;-76
2022/10/30 09:04:07;;;;;;;32.50;15.60;;;;;;;13.01;100.00;99479.84;4478872;32;20096;-76
2022/10/30 09:06:35;;;;;;;36.30;16.33;;;;;;;13.18;100.00;99471.25;4485575;31;20104;-76
2022/10/30 09:09:07;;;;;;;40.92;16.55;;;;;;;13.27;100.00;99488.84;4471207;31;20156;-76
2022/10/30 09:11:35;;;;;;;31.73;14.45;;;;;;;13.12;100.00;99477.88;4468645;32;20157;-76
2022/10/30 09:14:03;;;;;;;33.10;15.13;;;;;;;13.20;100.00;99474.59;4469725;32;20394;-76
2022/10/30 09:16:30;;;;;;;34.08;16.55;;;;;;;13.22;100.00;99483.19;4469606;32;20164;-76
2022/10/30 09:18:57;;;;;;;31.33;15.27;;;;;;;13.24;100.00;99475.16;4469694;32;20101;-76
2022/10/30 09:21:24;;;;;;;33.58;16.67;;;;;;;13.31;100.00;99482.37;4469526;32;20111;-76
2022/10/30 09:23:52;;;;;;;29.35;16.23;;;;;;;13.32;100.00;99485.81;4470014;32;20097;-76
2022/10/30 09:26:22;;;;;;;29.27;15.02;;;;;;;13.36;100.00;99481.16;4469492;32;20138;-75
2022/10/30 09:28:49;;;;;;;26.98;15.25;;;;;;;13.42;100.00;99478.78;4469970;32;20110;-76
2022/10/30 09:31:22;;;;;;;29.73;14.80;;;;;;;13.35;100.00;99482.13;4469714;32;20690;-76
2022/10/30 09:33:49;;;;;;;31.12;15.40;;;;;;;13.47;100.00;99473.97;4469792;32;20096;-76
2022/10/30 09:36:24;;;;;;;27.55;14.60;;;;;;;13.49;100.00;99476.47;4469452;32;20077;-76
2022/10/30 09:38:54;;;;;;;31.55;16.33;;;;;;;13.49;100.00;99473.84;4469589;32;20104;-76
2022/10/30 09:41:59;;;;;;;27.37;13.88;;;;;;;13.49;100.00;99477.28;4469738;32;20104;-76
2022/10/30 09:44:37;;;;;;;28.80;14.57;;;;;;;13.49;100.00;99465.94;4469092;32;20148;-76
2022/10/30 09:47:23;;;;;;;27.52;14.02;;;;;;;13.55;100.00;99477.69;4469757;32;20092;-76
2022/10/30 09:49:57;;;;;;;29.67;14.20;;;;;;;13.65;100.00;99478.53;4469434;32;20107;-76
2022/10/30 09:52:42;;;;;;;25.40;13.07;;;;;;;13.76;100.00;99472.28;4469590;32;20473;-76
2022/10/30 09:55:37;;;;;;;27.60;14.50;;;;;;;13.65;100.00;99468.81;4469401;32;20112;-76
2022/10/30 09:58:32;;;;;;;28.35;14.05;;;;;;;13.80;100.00;99465.75;4469541;32;20112;-76
2022/10/30 10:01:21;;;;;;;22.42;12.57;;;;;;;13.82;100.00;99456.75;4468205;32;20580;-76
2022/10/30 10:04:05;;;;;;;25.27;12.93;;;;;;;13.96;100.00;99457.25;4461307;32;20157;-76
2022/10/30 10:06:33;;;;;;;29.42;13.80;;;;;;;13.96;100.00;99454.63;4453465;32;20073;-76
2022/10/30 10:09:05;;;;;;;21.37;12.85;;;;;;;14.01;100.00;99452.41;4466369;32;20486;-76
2022/10/30 10:11:37;;;;;;;25.08;13.40;;;;;;;14.14;100.00;99454.72;4467993;32;20449;-76
2022/10/30 10:14:08;;;;;;;24.50;12.60;;;;;;;14.08;100.00;99457.94;4469696;32;20099;-76
2022/10/30 10:16:37;;;;;;;32.55;13.73;;;;;;;14.21;100.00;99453.19;4469370;32;20106;-76
2022/10/30 10:19:11;;;;;;;29.25;14.38;;;;;;;14.14;100.00;99457.38;4469156;32;20586;-76
2022/10/30 10:21:44;;;;;;;26.35;13.13;;;;;;;13.96;100.00;99452.84;4469131;32;20624;-76
2022/10/30 10:24:21;;;;;;;25.62;14.10;;;;;;;13.87;100.00;99455.47;4469256;32;20135;-76
2022/10/30 10:26:49;;;;;;;25.50;13.73;;;;;;;13.99;100.00;99449.09;4467777;32;20109;-76
2022/10/30 10:29:54;;;;;;;26.30;14.23;;;;;;;13.90;100.00;99449.94;4469345;32;20096;-76
2022/10/30 10:32:30;;;;;;;28.05;13.25;;;;;;;13.97;100.00;99443.13;4468984;32;20089;-76
2022/10/30 10:35:06;;;;;;;26.12;13.98;;;;;;;14.06;100.00;99438.81;4469202;32;20108;-76
2022/10/30 10:37:54;;;;;;;28.77;15.18;;;;;;;13.90;100.00;99442.03;4468930;32;20081;-76
2022/10/30 10:40:52;;;;;;;25.08;13.50;;;;;;;14.16;100.00;99444.91;4469058;32;20367;-76
2022/10/30 10:43:41;;;;;;;23.00;13.55;;;;;;;14.27;100.00;99442.06;4468927;32;20115;-76
2022/10/30 10:47:07;;;;;;;27.33;13.85;;;;;;;14.27;100.00;99435.97;4469007;32;20077;-76
2022/10/30 10:50:01;;;;;;;28.40;12.80;;;;;;;14.28;100.00;99438.47;4359603;32;20200;-76
2022/10/30 10:52:36;;;;;;;29.02;14.05;;;;;;;14.19;100.00;99437.53;4359674;32;20119;-76
2022/10/30 10:55:08;;;;;;;25.67;14.10;;;;;;;14.13;100.00;99437.28;4359504;32;20233;-76
2022/10/30 10:57:37;;;;;;;31.75;16.12;;;;;;;14.34;100.00;99429.97;4360960;32;20102;-76
2022/10/30 11:00:07;;;;;;;33.50;14.87;;;;;;;13.95;100.00;99435.38;4361112;32;20156;-76
2022/10/30 11:02:39;;;;;;;31.27;15.43;;;;;;;14.11;100.00;99436.56;4361209;32;20165;-76
2022/10/30 11:05:32;;;;;;;32.33;14.65;;;;;;;14.00;100.00;99432.31;4346984;32;20504;-76
2022/10/30 11:08:18;;;;;;;31.75;14.02;;;;;;;14.30;100.00;99430.41;4352720;32;20168;-76
2022/10/30 11:11:03;;;;;;;33.40;15.90;;;;;;;14.34;100.00;99432.62;4361354;32;20115;-76
2022/10/30 11:13:38;;;;;;;29.20;15.23;;;;;;;14.34;100.00;99432.62;4361281;32;20720;-76
2022/10/30 11:16:17;;;;;;;37.22;16.27;;;;;;;14.23;100.00;99422.28;4361330;32;20099;-76
2022/10/30 11:18:46;;;;;;;32.03;14.63;;;;;;;14.13;100.00;99421.47;4361346;32;20217;-76
2022/10/30 11:21:18;;;;;;;31.35;14.43;;;;;;;13.98;100.00;99418.47;4404961;32;20182;-76
2022/10/30 11:23:47;;;;;;;30.75;15.55;;;;;;;14.16;100.00;99413.28;4406411;32;20130;-76